Time;durP1;ratioP1;P1;durP2;ratioP2;P2;SDS_P1;SDS_P2;PMS_P1;PMS_P2;Temp;Humidity;BMP_temperature;BMP_pressure;BME280_temperature;BME280_humidity;BME280_pressure;Samples;Min_cycle;Max_cycle;Signal;HPM_P1;HPM_P2
2021/12/02 00:23:29;;;;;;;2.80;2.20;;;;;;;;;;4136775;34;20544;-67
2021/12/02 00:26:19;;;;;;;3.33;2.30;;;;;;;;;;4097830;34;20142;-67
2021/12/02 00:28:53;;;;;;;3.55;2.05;;;;;;;;;;4116627;34;20121;-63
2021/12/02 00:31:22;;;;;;;2.12;1.92;;;;;;;;;;4123296;34;20559;-63
2021/12/02 00:33:57;;;;;;;2.72;2.10;;;;;;;;;;4123267;34;20199;-63
2021/12/02 00:36:25;;;;;;;2.67;2.28;;;;;;;;;;4123130;34;20139;-63
2021/12/02 00:38:52;;;;;;;2.58;2.03;;;;;;;;;;4122687;34;20100;-68
2021/12/02 00:41:21;;;;;;;2.90;2.22;;;;;;;;;;4123251;34;20213;-68
2021/12/02 00:43:49;;;;;;;2.20;2.00;;;;;;;;;;4123230;34;20096;-68
2021/12/02 00:46:19;;;;;;;2.42;1.90;;;;;;;;;;4123137;34;20098;-67
2021/12/02 00:48:46;;;;;;;4.10;2.22;;;;;;;;;;4123179;34;20219;-68
2021/12/02 00:51:12;;;;;;;2.62;1.98;;;;;;;;;;4123087;34;20448;-68
2021/12/02 00:53:45;;;;;;;3.28;2.28;;;;;;;;;;4122924;34;20103;-67
2021/12/02 00:56:13;;;;;;;2.70;2.17;;;;;;;;;;4123050;34;20524;-68
2021/12/02 00:58:40;;;;;;;3.47;2.10;;;;;;;;;;4123070;34;20143;-68
2021/12/02 01:01:07;;;;;;;2.60;2.37;;;;;;;;;;4123064;34;20623;-68
2021/12/02 01:03:36;;;;;;;4.07;2.00;;;;;;;;;;4123037;34;20110;-68
2021/12/02 01:06:05;;;;;;;3.78;2.30;;;;;;;;;;4122985;34;20441;-68
2021/12/02 01:08:32;;;;;;;3.15;2.17;;;;;;;;;;4122993;34;20111;-68
2021/12/02 01:10:58;;;;;;;2.78;2.33;;;;;;;;;;4123049;34;20129;-67
2021/12/02 01:13:24;;;;;;;2.30;2.10;;;;;;;;;;4110492;34;20240;-63
2021/12/02 01:15:51;;;;;;;3.50;2.55;;;;;;;;;;4123115;34;20535;-63
2021/12/02 01:18:17;;;;;;;2.50;2.10;;;;;;;;;;4122858;34;20536;-63
2021/12/02 01:20:46;;;;;;;2.25;2.03;;;;;;;;;;4122682;34;20103;-63
2021/12/02 01:23:12;;;;;;;3.42;2.65;;;;;;;;;;4110577;34;20105;-63
2021/12/02 01:25:39;;;;;;;4.03;2.47;;;;;;;;;;4122709;34;20111;-63
2021/12/02 01:28:05;;;;;;;3.17;2.50;;;;;;;;;;4110675;34;20131;-63
2021/12/02 01:30:32;;;;;;;2.75;2.20;;;;;;;;;;4121325;34;20540;-63
2021/12/02 01:33:03;;;;;;;2.78;2.58;;;;;;;;;;4122811;34;20095;-63
2021/12/02 01:35:31;;;;;;;2.67;2.17;;;;;;;;;;4122626;34;20560;-63
2021/12/02 01:37:57;;;;;;;2.90;2.03;;;;;;;;;;4122771;34;20099;-63
2021/12/02 01:40:23;;;;;;;3.20;2.40;;;;;;;;;;4122647;34;20112;-63
2021/12/02 01:42:54;;;;;;;3.60;2.55;;;;;;;;;;4122747;34;20127;-63
2021/12/02 01:45:28;;;;;;;3.53;2.20;;;;;;;;;;4122530;34;20127;-63
2021/12/02 01:47:56;;;;;;;2.42;2.20;;;;;;;;;;4122666;34;20552;-63
2021/12/02 01:50:24;;;;;;;2.90;2.60;;;;;;;;;;4124447;34;20111;-62
2021/12/02 01:52:55;;;;;;;3.33;2.50;;;;;;;;;;4124571;34;20107;-63
2021/12/02 01:55:22;;;;;;;2.72;2.45;;;;;;;;;;4124307;34;20125;-63
2021/12/02 01:58:08;;;;;;;4.10;2.33;;;;;;;;;;4124875;34;20099;-63
2021/12/02 02:00:44;;;;;;;2.53;2.17;;;;;;;;;;4111766;34;20735;-63
2021/12/02 02:03:14;;;;;;;3.20;2.42;;;;;;;;;;4124562;34;20130;-63
2021/12/02 02:05:41;;;;;;;4.18;2.90;;;;;;;;;;4124497;34;20096;-63
2021/12/02 02:08:18;;;;;;;3.58;2.55;;;;;;;;;;4124457;34;20519;-63
2021/12/02 02:10:45;;;;;;;2.30;2.10;;;;;;;;;;4124468;34;20128;-63
2021/12/02 02:13:12;;;;;;;3.95;2.65;;;;;;;;;;4124437;34;20100;-64
2021/12/02 02:15:41;;;;;;;3.92;2.33;;;;;;;;;;4124580;34;20119;-63
2021/12/02 02:18:20;;;;;;;2.97;2.20;;;;;;;;;;4124413;34;20180;-63
2021/12/02 02:21:01;;;;;;;2.75;2.37;;;;;;;;;;4124323;34;20614;-63
2021/12/02 02:23:29;;;;;;;2.78;2.22;;;;;;;;;;4124346;34;20140;-63
2021/12/02 02:25:56;;;;;;;4.03;2.30;;;;;;;;;;4124345;34;20974;-65
2021/12/02 02:28:22;;;;;;;3.10;2.70;;;;;;;;;;4112227;34;20179;-63
2021/12/02 02:30:49;;;;;;;2.70;2.20;;;;;;;;;;4124385;34;20107;-66
2021/12/02 02:33:17;;;;;;;3.83;2.90;;;;;;;;;;4124147;34;20205;-62
2021/12/02 02:35:43;;;;;;;3.92;3.20;;;;;;;;;;4124383;34;20131;-63
2021/12/02 02:38:10;;;;;;;4.37;2.90;;;;;;;;;;4124300;34;20395;-63
2021/12/02 02:40:39;;;;;;;6.12;2.97;;;;;;;;;;4124197;34;20122;-64
2021/12/02 02:43:08;;;;;;;3.75;3.15;;;;;;;;;;4124197;34;20099;-63
2021/12/02 02:45:35;;;;;;;5.15;4.12;;;;;;;;;;4124231;34;20564;-64
2021/12/02 02:48:01;;;;;;;2.42;2.22;;;;;;;;;;4124142;34;20602;-63
2021/12/02 02:50:29;;;;;;;5.40;2.97;;;;;;;;;;4122906;34;20136;-62
2021/12/02 02:53:20;;;;;;;4.05;2.50;;;;;;;;;;4124282;34;20095;-63
2021/12/02 02:55:57;;;;;;;2.55;2.30;;;;;;;;;;4123556;34;20124;-63
2021/12/02 03:06:32;;;;;;;3.00;2.58;;;;;;;;;;4123945;34;20103;-63
2021/12/02 03:09:18;;;;;;;9.50;3.22;;;;;;;;;;4112269;34;20096;-64
2021/12/02 03:11:56;;;;;;;4.03;3.08;;;;;;;;;;4122798;34;20195;-63
2021/12/02 03:14:30;;;;;;;3.20;2.50;;;;;;;;;;4122593;34;20222;-61
2021/12/02 03:16:56;;;;;;;3.30;2.78;;;;;;;;;;4122410;34;20115;-62
2021/12/02 03:19:25;;;;;;;4.40;3.17;;;;;;;;;;4121793;34;20127;-62
2021/12/02 03:21:52;;;;;;;4.03;2.97;;;;;;;;;;4121760;34;20130;-62
2021/12/02 03:24:19;;;;;;;2.97;2.67;;;;;;;;;;4121846;34;20623;-63
2021/12/02 03:26:45;;;;;;;3.08;2.30;;;;;;;;;;4121753;34;20113;-62
2021/12/02 03:29:17;;;;;;;3.35;2.80;;;;;;;;;;4121633;34;20131;-62
2021/12/02 03:31:43;;;;;;;3.85;2.45;;;;;;;;;;4121105;34;20134;-62
2021/12/02 03:34:10;;;;;;;4.95;2.97;;;;;;;;;;4123650;34;20233;-62
2021/12/02 03:36:37;;;;;;;3.55;2.65;;;;;;;;;;4123665;34;20104;-62
2021/12/02 03:39:08;;;;;;;3.25;2.60;;;;;;;;;;4123752;34;20115;-62
2021/12/02 03:41:34;;;;;;;4.05;2.40;;;;;;;;;;4123662;34;20123;-61
2021/12/02 03:44:00;;;;;;;3.35;2.83;;;;;;;;;;4123661;34;20131;-64
2021/12/02 03:46:27;;;;;;;3.35;2.70;;;;;;;;;;4122172;34;20120;-63
2021/12/02 03:48:54;;;;;;;5.37;3.50;;;;;;;;;;4123676;34;20213;-62
2021/12/02 03:51:20;;;;;;;3.20;2.90;;;;;;;;;;4123466;34;20102;-63
2021/12/02 03:53:47;;;;;;;3.00;2.70;;;;;;;;;;4123610;34;20529;-64
2021/12/02 03:56:13;;;;;;;3.58;2.75;;;;;;;;;;4123542;34;20112;-63
2021/12/02 03:58:41;;;;;;;6.90;2.85;;;;;;;;;;4123541;34;20479;-63
2021/12/02 04:01:08;;;;;;;3.30;2.72;;;;;;;;;;4123405;34;20194;-62
2021/12/02 04:03:34;;;;;;;3.92;3.17;;;;;;;;;;4123557;34;20119;-62
2021/12/02 04:06:00;;;;;;;3.28;2.97;;;;;;;;;;4123535;34;20531;-63
2021/12/02 04:08:31;;;;;;;6.07;3.05;;;;;;;;;;4123352;34;20544;-62
2021/12/02 04:11:52;;;;;;;4.40;3.00;;;;;;;;;;4122106;34;20447;-62
2021/12/02 04:14:00;;;;;;;3.12;2.83;;;;;;;;;;4122170;34;20664;-63
2021/12/02 04:16:29;;;;;;;3.17;2.85;;;;;;;;;;4123404;34;20120;-62
2021/12/02 04:18:55;;;;;;;4.78;2.70;;;;;;;;;;4123262;34;20244;-62
2021/12/02 04:21:21;;;;;;;4.70;2.80;;;;;;;;;;4123269;34;20543;-63
2021/12/02 04:23:48;;;;;;;3.30;2.90;;;;;;;;;;4123361;34;20111;-63
2021/12/02 04:26:14;;;;;;;3.22;2.80;;;;;;;;;;4123292;34;20513;-63
2021/12/02 04:28:40;;;;;;;3.28;2.97;;;;;;;;;;4123320;34;20210;-62
2021/12/02 04:31:06;;;;;;;4.43;3.03;;;;;;;;;;4123229;34;20115;-62
2021/12/02 04:33:32;;;;;;;3.67;2.58;;;;;;;;;;4121790;34;20452;-66
2021/12/02 04:36:00;;;;;;;3.20;2.90;;;;;;;;;;4123029;34;20104;-64
2021/12/02 04:38:27;;;;;;;3.00;2.70;;;;;;;;;;4121806;34;20199;-61
2021/12/02 04:40:54;;;;;;;3.40;2.87;;;;;;;;;;4123239;34;20166;-62
2021/12/02 04:43:20;;;;;;;3.35;2.95;;;;;;;;;;4123028;34;20223;-61
2021/12/02 04:45:46;;;;;;;2.95;2.50;;;;;;;;;;4123069;34;20116;-62
2021/12/02 04:48:12;;;;;;;3.22;2.87;;;;;;;;;;4123149;34;20131;-62
2021/12/02 04:50:38;;;;;;;3.30;2.75;;;;;;;;;;4123040;34;20644;-62
2021/12/02 04:53:04;;;;;;;3.75;2.72;;;;;;;;;;4122892;34;20115;-62
2021/12/02 04:55:30;;;;;;;3.90;2.92;;;;;;;;;;4123072;34;20521;-61
2021/12/02 04:57:56;;;;;;;3.75;3.00;;;;;;;;;;4123081;34;20096;-61
2021/12/02 05:00:22;;;;;;;3.90;3.12;;;;;;;;;;4122974;34;20133;-63
2021/12/02 05:02:48;;;;;;;3.53;2.78;;;;;;;;;;4122823;34;20605;-62
2021/12/02 05:05:14;;;;;;;3.97;3.20;;;;;;;;;;4122910;34;20155;-62
2021/12/02 05:07:40;;;;;;;3.85;3.00;;;;;;;;;;4122779;34;20112;-62
2021/12/02 05:10:07;;;;;;;5.28;2.97;;;;;;;;;;4110276;34;20111;-62
2021/12/02 05:12:34;;;;;;;3.97;3.00;;;;;;;;;;4122703;34;20112;-62
2021/12/02 05:15:03;;;;;;;4.35;3.00;;;;;;;;;;4122634;34;20590;-63
2021/12/02 05:17:29;;;;;;;3.78;3.17;;;;;;;;;;4122823;34;20107;-64
2021/12/02 05:19:55;;;;;;;4.37;3.03;;;;;;;;;;4132319;34;20213;-63
2021/12/02 05:22:21;;;;;;;4.00;3.10;;;;;;;;;;4122521;34;20115;-63
2021/12/02 05:24:47;;;;;;;3.58;3.03;;;;;;;;;;4122368;34;20226;-64
2021/12/02 05:27:14;;;;;;;3.50;3.20;;;;;;;;;;4122629;34;20130;-62
2021/12/02 05:29:40;;;;;;;3.72;2.85;;;;;;;;;;4121403;34;20107;-63
2021/12/02 05:32:06;;;;;;;3.70;3.25;;;;;;;;;;4122524;34;20100;-63
2021/12/02 05:34:33;;;;;;;4.60;3.42;;;;;;;;;;4122422;34;20518;-63
2021/12/02 05:36:59;;;;;;;3.40;3.10;;;;;;;;;;4122357;34;20128;-63
2021/12/02 05:39:25;;;;;;;4.80;3.35;;;;;;;;;;4122635;34;20116;-63
2021/12/02 05:41:53;;;;;;;3.83;3.30;;;;;;;;;;4122267;34;20130;-63
2021/12/02 05:44:21;;;;;;;3.45;3.15;;;;;;;;;;4121184;34;20120;-63
2021/12/02 05:46:47;;;;;;;4.35;3.33;;;;;;;;;;4122190;34;20481;-63
2021/12/02 05:49:13;;;;;;;4.70;3.15;;;;;;;;;;4122417;34;20123;-63
2021/12/02 05:51:41;;;;;;;4.03;3.53;;;;;;;;;;4122280;34;20548;-62
2021/12/02 05:54:11;;;;;;;3.90;3.50;;;;;;;;;;4122211;34;20119;-62
2021/12/02 05:56:37;;;;;;;5.22;3.92;;;;;;;;;;4122335;34;20221;-63
2021/12/02 05:59:03;;;;;;;3.90;3.50;;;;;;;;;;4122474;34;20099;-62
2021/12/02 06:01:29;;;;;;;4.95;3.90;;;;;;;;;;4122367;34;20505;-63
2021/12/02 06:03:55;;;;;;;4.20;3.70;;;;;;;;;;4122329;34;20131;-62
2021/12/02 06:06:26;;;;;;;5.40;3.50;;;;;;;;;;4120707;34;20206;-62
2021/12/02 06:08:52;;;;;;;4.53;3.58;;;;;;;;;;4122316;34;20111;-62
2021/12/02 06:11:18;;;;;;;5.35;3.40;;;;;;;;;;4122556;34;20112;-62
2021/12/02 06:13:46;;;;;;;4.10;3.50;;;;;;;;;;4122215;34;20225;-62
2021/12/02 06:16:13;;;;;;;4.22;3.22;;;;;;;;;;4122098;34;20122;-61
2021/12/02 06:18:39;;;;;;;5.22;3.75;;;;;;;;;;4121986;34;20540;-63
2021/12/02 06:21:05;;;;;;;4.05;3.37;;;;;;;;;;4122260;34;20132;-62
2021/12/02 06:23:31;;;;;;;3.90;3.17;;;;;;;;;;4120518;34;20100;-62
2021/12/02 06:25:57;;;;;;;5.22;3.30;;;;;;;;;;4122035;34;20116;-62
2021/12/02 06:28:23;;;;;;;4.00;3.60;;;;;;;;;;4109514;34;20218;-62
2021/12/02 06:30:49;;;;;;;4.37;3.50;;;;;;;;;;4120634;34;20100;-62
2021/12/02 06:33:16;;;;;;;4.65;3.50;;;;;;;;;;4121871;34;20211;-62
2021/12/02 06:35:42;;;;;;;5.30;3.95;;;;;;;;;;4122650;34;20115;-62
2021/12/02 06:38:08;;;;;;;3.97;3.58;;;;;;;;;;4124235;34;20112;-62
2021/12/02 06:40:35;;;;;;;3.85;3.35;;;;;;;;;;4123878;34;20112;-62
2021/12/02 06:43:02;;;;;;;4.32;3.62;;;;;;;;;;4123851;34;20117;-62
2021/12/02 06:45:28;;;;;;;4.40;3.70;;;;;;;;;;4123793;34;20221;-61
2021/12/02 06:47:58;;;;;;;4.05;3.65;;;;;;;;;;4123868;34;20507;-62
2021/12/02 06:50:25;;;;;;;5.00;3.12;;;;;;;;;;4123835;34;20199;-62
2021/12/02 06:52:52;;;;;;;4.25;3.53;;;;;;;;;;4123900;34;20457;-62
2021/12/02 06:55:19;;;;;;;3.72;3.15;;;;;;;;;;4123775;34;20127;-61
2021/12/02 06:57:45;;;;;;;4.40;4.00;;;;;;;;;;4124127;34;20107;-62
2021/12/02 07:00:14;;;;;;;5.43;3.65;;;;;;;;;;4123943;34;20104;-62
2021/12/02 07:02:40;;;;;;;4.82;3.97;;;;;;;;;;4123885;34;20104;-62
2021/12/02 07:05:08;;;;;;;5.10;3.50;;;;;;;;;;4123512;34;20131;-62
2021/12/02 07:07:38;;;;;;;4.97;4.30;;;;;;;;;;4123139;34;20115;-62
2021/12/02 07:10:20;;;;;;;5.95;4.12;;;;;;;;;;4124143;34;20181;-62
2021/12/02 07:12:49;;;;;;;5.20;3.90;;;;;;;;;;4123839;34;20108;-60
2021/12/02 07:15:21;;;;;;;4.95;4.03;;;;;;;;;;4123481;34;20213;-61
2021/12/02 07:17:53;;;;;;;4.80;4.30;;;;;;;;;;4123850;34;20115;-63
2021/12/02 07:20:19;;;;;;;7.40;4.32;;;;;;;;;;4123545;34;20140;-62
2021/12/02 07:22:45;;;;;;;4.57;4.07;;;;;;;;;;4123670;34;20302;-62
2021/12/02 07:25:11;;;;;;;4.60;4.07;;;;;;;;;;4123853;34;20169;-62
2021/12/02 07:27:38;;;;;;;4.65;4.00;;;;;;;;;;4123674;34;20102;-61
2021/12/02 07:30:05;;;;;;;5.25;4.18;;;;;;;;;;4123823;34;20112;-62
2021/12/02 07:32:40;;;;;;;5.40;4.20;;;;;;;;;;4123612;34;20100;-62
2021/12/02 07:35:12;;;;;;;5.15;4.53;;;;;;;;;;4123778;34;20210;-62
2021/12/02 07:37:43;;;;;;;6.03;4.43;;;;;;;;;;4133200;34;20150;-63
2021/12/02 07:40:10;;;;;;;7.55;4.57;;;;;;;;;;4123650;34;20100;-63
2021/12/02 07:42:36;;;;;;;4.85;4.35;;;;;;;;;;4123668;34;20218;-63
2021/12/02 07:45:04;;;;;;;7.37;4.90;;;;;;;;;;4123728;34;20104;-62
2021/12/02 07:47:33;;;;;;;5.12;4.62;;;;;;;;;;4123399;34;20463;-62
2021/12/02 07:49:59;;;;;;;5.87;4.53;;;;;;;;;;4123621;34;20521;-63
2021/12/02 07:52:26;;;;;;;7.25;5.25;;;;;;;;;;4123422;34;20128;-63
2021/12/02 07:54:53;;;;;;;4.78;4.30;;;;;;;;;;4123391;34;20261;-63
2021/12/02 07:57:19;;;;;;;4.97;4.47;;;;;;;;;;4123446;34;20108;-63
2021/12/02 07:59:49;;;;;;;4.62;4.20;;;;;;;;;;4123536;34;20107;-63
2021/12/02 08:02:16;;;;;;;5.45;4.43;;;;;;;;;;4123336;34;20183;-63
2021/12/02 08:04:42;;;;;;;5.20;4.70;;;;;;;;;;4123452;34;20123;-62
2021/12/02 08:07:08;;;;;;;4.85;4.37;;;;;;;;;;4123322;34;20141;-62
2021/12/02 08:09:34;;;;;;;5.32;4.78;;;;;;;;;;4123340;34;20124;-64
2021/12/02 08:12:02;;;;;;;5.03;4.57;;;;;;;;;;4123321;34;20217;-62
2021/12/02 08:14:28;;;;;;;5.55;4.70;;;;;;;;;;4123140;34;20596;-62
2021/12/02 08:16:54;;;;;;;5.12;4.60;;;;;;;;;;4123287;34;20112;-62
2021/12/02 08:19:20;;;;;;;6.10;4.90;;;;;;;;;;4123020;34;20124;-62
2021/12/02 08:21:47;;;;;;;4.97;4.47;;;;;;;;;;4123117;34;20102;-62
2021/12/02 08:24:13;;;;;;;6.28;5.28;;;;;;;;;;4123291;34;20139;-62
2021/12/02 08:26:39;;;;;;;5.35;4.85;;;;;;;;;;4123139;34;20116;-62
2021/12/02 08:29:06;;;;;;;6.40;4.57;;;;;;;;;;4123153;34;20452;-62
2021/12/02 08:31:33;;;;;;;5.60;5.00;;;;;;;;;;4123261;34;20120;-63
2021/12/02 08:34:00;;;;;;;5.05;4.55;;;;;;;;;;4123295;34;20119;-63
2021/12/02 08:36:28;;;;;;;5.20;4.70;;;;;;;;;;4123194;34;20122;-63
2021/12/02 08:38:54;;;;;;;5.45;4.93;;;;;;;;;;4123016;34;20110;-62
2021/12/02 08:41:21;;;;;;;5.80;4.85;;;;;;;;;;4123068;34;20139;-61
2021/12/02 08:43:48;;;;;;;5.55;4.82;;;;;;;;;;4122990;34;20135;-62
2021/12/02 08:46:15;;;;;;;5.35;4.85;;;;;;;;;;4123070;34;20521;-62
2021/12/02 08:48:41;;;;;;;6.18;4.90;;;;;;;;;;4122941;34;20146;-61
2021/12/02 08:51:07;;;;;;;6.05;5.10;;;;;;;;;;4122954;34;20116;-62
2021/12/02 08:53:33;;;;;;;5.90;5.20;;;;;;;;;;4122911;34;20120;-62
2021/12/02 08:55:59;;;;;;;5.75;5.15;;;;;;;;;;4122821;34;20174;-62
2021/12/02 08:58:25;;;;;;;6.03;5.47;;;;;;;;;;4122216;34;20202;-61
2021/12/02 09:00:51;;;;;;;5.62;5.05;;;;;;;;;;4122736;34;20147;-63
2021/12/02 09:03:17;;;;;;;5.30;4.80;;;;;;;;;;4122651;34;20123;-62
2021/12/02 09:05:44;;;;;;;5.90;5.30;;;;;;;;;;4122744;34;20477;-62
2021/12/02 09:08:10;;;;;;;6.18;5.55;;;;;;;;;;4122689;34;20454;-62
2021/12/02 09:10:37;;;;;;;6.95;5.62;;;;;;;;;;4122801;34;20407;-62
2021/12/02 09:13:10;;;;;;;5.53;5.03;;;;;;;;;;4121126;34;20116;-62
2021/12/02 09:15:38;;;;;;;5.32;4.82;;;;;;;;;;4121521;34;20108;-63
2021/12/02 09:18:04;;;;;;;6.00;5.40;;;;;;;;;;4121549;34;20119;-63
2021/12/02 09:20:30;;;;;;;5.68;5.05;;;;;;;;;;4121309;34;20189;-63
2021/12/02 09:22:56;;;;;;;6.18;5.57;;;;;;;;;;4122081;34;20116;-63
2021/12/02 09:25:22;;;;;;;5.78;5.28;;;;;;;;;;4122581;34;20442;-62
2021/12/02 09:27:49;;;;;;;5.75;5.25;;;;;;;;;;4122945;34;20131;-61
2021/12/02 09:30:16;;;;;;;5.93;5.32;;;;;;;;;;4122573;34;20127;-62
2021/12/02 09:32:42;;;;;;;6.10;5.47;;;;;;;;;;4122886;34;20120;-62
2021/12/02 09:35:09;;;;;;;5.80;5.20;;;;;;;;;;4122596;34;20131;-63
2021/12/02 09:37:35;;;;;;;6.03;5.53;;;;;;;;;;4122594;34;20104;-62
2021/12/02 09:40:03;;;;;;;6.10;5.22;;;;;;;;;;4122412;34;20520;-63
2021/12/02 09:42:29;;;;;;;6.20;5.60;;;;;;;;;;4122651;34;20528;-62
2021/12/02 09:44:59;;;;;;;6.05;5.45;;;;;;;;;;4122630;34;20156;-63
2021/12/02 09:47:28;;;;;;;6.78;6.00;;;;;;;;;;4122726;34;20111;-63
2021/12/02 09:49:54;;;;;;;6.57;5.97;;;;;;;;;;4122603;34;20238;-63
2021/12/02 09:52:29;;;;;;;6.82;5.78;;;;;;;;;;4110300;34;20132;-64
2021/12/02 09:55:04;;;;;;;6.97;6.20;;;;;;;;;;4122304;34;20110;-63
2021/12/02 09:57:37;;;;;;;7.28;6.18;;;;;;;;;;4122456;34;20168;-62
2021/12/02 10:00:05;;;;;;;6.75;6.05;;;;;;;;;;4122451;34;20103;-62
2021/12/02 10:02:38;;;;;;;8.23;7.43;;;;;;;;;;4122330;34;20126;-62
2021/12/02 10:05:08;;;;;;;11.20;10.00;;;;;;;;;;4122190;34;20126;-62
2021/12/02 10:07:44;;;;;;;11.75;10.65;;;;;;;;;;4122135;34;20130;-63
2021/12/02 10:10:15;;;;;;;11.15;10.05;;;;;;;;;;4121975;34;20130;-64
2021/12/02 10:13:26;;;;;;;13.82;12.43;;;;;;;;;;4124466;34;20103;-62
2021/12/02 10:21:45;;;;;;;8.90;8.02;;;;;;;;;;4124492;34;20116;-62
2021/12/02 10:24:15;;;;;;;9.35;8.35;;;;;;;;;;4124181;34;20131;-63
2021/12/02 10:26:54;;;;;;;8.98;8.00;;;;;;;;;;4124178;34;20554;-62
2021/12/02 10:29:25;;;;;;;7.82;7.12;;;;;;;;;;4122827;34;20120;-63
2021/12/02 10:32:11;;;;;;;8.00;7.20;;;;;;;;;;4122646;34;20557;-61
2021/12/02 10:34:49;;;;;;;6.82;6.12;;;;;;;;;;4122216;34;20277;-62
2021/12/02 10:37:18;;;;;;;8.30;6.45;;;;;;;;;;4122927;34;20552;-62
2021/12/02 10:40:02;;;;;;;9.07;8.13;;;;;;;;;;4122961;34;20514;-63
2021/12/02 10:42:29;;;;;;;10.07;9.07;;;;;;;;;;4122798;34;20112;-62
2021/12/02 10:44:58;;;;;;;11.18;10.10;;;;;;;;;;4122599;34;20115;-62
2021/12/02 10:47:24;;;;;;;10.27;9.20;;;;;;;;;;4122877;34;20099;-62
2021/12/02 10:50:08;;;;;;;9.07;8.18;;;;;;;;;;4122582;34;20116;-63
2021/12/02 10:52:35;;;;;;;10.13;8.82;;;;;;;;;;4122837;34;20108;-61
2021/12/02 10:55:03;;;;;;;9.70;8.80;;;;;;;;;;4122704;34;20456;-61
2021/12/02 10:57:31;;;;;;;8.65;7.75;;;;;;;;;;4122639;34;20107;-63
2021/12/02 10:59:59;;;;;;;8.80;7.90;;;;;;;;;;4122556;34;20143;-63
2021/12/02 11:02:28;;;;;;;7.60;6.35;;;;;;;;;;4121196;34;20193;-63
2021/12/02 11:05:07;;;;;;;7.03;6.32;;;;;;;;;;4122449;34;20142;-62
2021/12/02 11:07:35;;;;;;;7.65;6.85;;;;;;;;;;4123086;34;20119;-63
2021/12/02 11:10:10;;;;;;;8.48;7.60;;;;;;;;;;4123778;34;20591;-61
2021/12/02 11:12:41;;;;;;;8.05;7.25;;;;;;;;;;4123837;34;20122;-62
2021/12/02 11:15:21;;;;;;;7.65;6.85;;;;;;;;;;4123707;34;20107;-63
2021/12/02 11:17:54;;;;;;;9.40;8.23;;;;;;;;;;4124060;34;20138;-62
2021/12/02 11:20:22;;;;;;;8.73;7.70;;;;;;;;;;4123539;34;20519;-62
2021/12/02 11:23:12;;;;;;;9.10;8.20;;;;;;;;;;4123299;34;20115;-62
2021/12/02 11:25:56;;;;;;;9.98;8.13;;;;;;;;;;4123557;34;20453;-63
2021/12/02 11:28:24;;;;;;;9.13;8.13;;;;;;;;;;4123714;34;20092;-62
2021/12/02 11:30:56;;;;;;;8.80;7.90;;;;;;;;;;4123550;34;20088;-61
2021/12/02 11:33:30;;;;;;;8.45;7.28;;;;;;;;;;4123556;34;20112;-63
2021/12/02 11:35:56;;;;;;;8.10;7.05;;;;;;;;;;4123640;34;20738;-63
2021/12/02 11:38:25;;;;;;;8.82;7.75;;;;;;;;;;4123561;34;20130;-62
2021/12/02 11:40:57;;;;;;;8.80;7.62;;;;;;;;;;4123524;34;20103;-62
2021/12/02 11:43:26;;;;;;;8.68;7.78;;;;;;;;;;4123417;34;20119;-63
2021/12/02 11:45:54;;;;;;;9.13;7.60;;;;;;;;;;4123682;34;20202;-63
2021/12/02 11:48:22;;;;;;;9.15;8.07;;;;;;;;;;4123756;34;20099;-62
2021/12/02 11:50:51;;;;;;;8.02;6.90;;;;;;;;;;4123513;34;20123;-61
2021/12/02 11:53:21;;;;;;;9.90;7.30;;;;;;;;;;4123325;34;20130;-61
2021/12/02 11:55:56;;;;;;;10.25;7.78;;;;;;;;;;4123541;34;20110;-61
2021/12/02 11:58:22;;;;;;;11.40;8.63;;;;;;;;;;4123600;34;20119;-58
2021/12/02 12:00:49;;;;;;;7.93;7.12;;;;;;;;;;4123337;34;20468;-59
2021/12/02 12:03:22;;;;;;;7.68;6.87;;;;;;;;;;4110927;34;20100;-59
2021/12/02 12:06:06;;;;;;;6.57;5.82;;;;;;;;;;4111182;34;20100;-59
2021/12/02 12:08:34;;;;;;;6.85;5.93;;;;;;;;;;4122191;34;20120;-60
2021/12/02 12:11:24;;;;;;;6.15;5.50;;;;;;;;;;4123321;34;20544;-60
2021/12/02 12:14:03;;;;;;;5.93;5.32;;;;;;;;;;4123311;34;20537;-58
2021/12/02 12:16:51;;;;;;;6.75;5.87;;;;;;;;;;4121787;34;20124;-59
2021/12/02 12:19:28;;;;;;;7.07;6.30;;;;;;;;;;4110685;34;20099;-59
2021/12/02 12:21:54;;;;;;;6.15;5.55;;;;;;;;;;4123138;34;20535;-60
2021/12/02 12:24:40;;;;;;;7.20;5.75;;;;;;;;;;4122176;34;20640;-60
2021/12/02 12:27:14;;;;;;;6.05;5.15;;;;;;;;;;4122149;34;20622;-60
2021/12/02 12:29:41;;;;;;;5.43;4.93;;;;;;;;;;4122644;34;20220;-60
2021/12/02 12:32:14;;;;;;;5.87;5.30;;;;;;;;;;4123222;34;20618;-60
2021/12/02 12:37:20;;;;;;;6.35;5.28;;;;;;;;;;4123175;34;20119;-60
2021/12/02 12:40:20;;;;;;;5.62;4.70;;;;;;;;;;4123388;34;20521;-62
2021/12/02 12:42:57;;;;;;;5.22;4.72;;;;;;;;;;4123179;34;20192;-61
2021/12/02 12:45:27;;;;;;;5.20;4.70;;;;;;;;;;4122953;34;20108;-61
2021/12/02 12:47:57;;;;;;;4.60;4.20;;;;;;;;;;4123032;34;20107;-59
2021/12/02 12:50:34;;;;;;;5.87;5.15;;;;;;;;;;4122866;34;20614;-60
2021/12/02 12:53:05;;;;;;;5.07;4.20;;;;;;;;;;4122930;34;20126;-60
2021/12/02 12:55:39;;;;;;;4.85;4.22;;;;;;;;;;4122770;34;20215;-61
2021/12/02 12:58:39;;;;;;;6.68;4.93;;;;;;;;;;4122829;34;20117;-61
2021/12/02 13:01:19;;;;;;;4.82;4.32;;;;;;;;;;4107372;34;20120;-61
2021/12/02 13:04:02;;;;;;;3.72;3.42;;;;;;;;;;4122946;34;20114;-59
2021/12/02 13:06:32;;;;;;;4.10;3.70;;;;;;;;;;4122866;34;20221;-60
2021/12/02 13:09:05;;;;;;;3.90;3.37;;;;;;;;;;4122911;34;20130;-61
2021/12/02 13:11:34;;;;;;;4.53;4.00;;;;;;;;;;4122744;34;20095;-60
2021/12/02 13:14:04;;;;;;;4.15;3.75;;;;;;;;;;4121535;34;20103;-60
2021/12/02 13:16:36;;;;;;;4.20;3.35;;;;;;;;;;4122766;34;20202;-61
2021/12/02 13:19:14;;;;;;;3.75;3.28;;;;;;;;;;4121353;34;20199;-59
2021/12/02 13:21:42;;;;;;;3.85;3.30;;;;;;;;;;4122600;34;20111;-60
2021/12/02 13:24:10;;;;;;;4.55;3.37;;;;;;;;;;4122689;34;20104;-60
2021/12/02 13:26:39;;;;;;;5.20;3.25;;;;;;;;;;4119917;34;20139;-60
2021/12/02 13:29:23;;;;;;;3.40;3.10;;;;;;;;;;4121534;34;20114;-61
2021/12/02 13:31:54;;;;;;;3.28;2.97;;;;;;;;;;4119913;34;20262;-59
2021/12/02 13:34:23;;;;;;;3.30;2.78;;;;;;;;;;4121184;34;20646;-59
2021/12/02 13:36:51;;;;;;;3.08;2.80;;;;;;;;;;4121512;34;20460;-59
2021/12/02 13:39:18;;;;;;;2.70;2.50;;;;;;;;;;4121072;34;20606;-59
2021/12/02 13:41:52;;;;;;;3.22;2.67;;;;;;;;;;4110018;34;20110;-60
2021/12/02 13:44:26;;;;;;;2.85;2.40;;;;;;;;;;4122140;34;20127;-60
2021/12/02 13:46:54;;;;;;;4.57;3.83;;;;;;;;;;4122533;34;20116;-60
2021/12/02 13:49:23;;;;;;;3.65;2.78;;;;;;;;;;4121207;34;20115;-60
2021/12/02 13:52:20;;;;;;;4.40;3.28;;;;;;;;;;4122429;34;20123;-60
2021/12/02 13:54:50;;;;;;;3.42;3.08;;;;;;;;;;4112149;34;20517;-60
2021/12/02 13:57:24;;;;;;;2.50;2.30;;;;;;;;;;4122434;34;20101;-59
2021/12/02 13:59:50;;;;;;;2.78;2.47;;;;;;;;;;4120986;34;20194;-61
2021/12/02 14:02:22;;;;;;;6.20;2.53;;;;;;;;;;4122145;34;20207;-61
2021/12/02 14:04:49;;;;;;;2.78;2.55;;;;;;;;;;4122355;34;20124;-62
2021/12/02 14:07:19;;;;;;;3.40;2.67;;;;;;;;;;4122250;34;20096;-62
2021/12/02 14:09:53;;;;;;;2.95;2.60;;;;;;;;;;4122165;34;20122;-62
2021/12/02 14:12:23;;;;;;;4.62;2.87;;;;;;;;;;4122002;34;20107;-62
2021/12/02 14:15:03;;;;;;;2.50;2.17;;;;;;;;;;4122142;34;20524;-62
2021/12/02 14:17:34;;;;;;;3.72;2.47;;;;;;;;;;4122007;34;20126;-61
2021/12/02 14:20:10;;;;;;;2.50;2.30;;;;;;;;;;4121922;34;20437;-62
2021/12/02 14:22:37;;;;;;;3.17;2.80;;;;;;;;;;4121933;34;20098;-62
2021/12/02 14:25:06;;;;;;;3.83;2.60;;;;;;;;;;4109689;34;20146;-62
2021/12/02 14:27:32;;;;;;;3.20;2.65;;;;;;;;;;4120494;34;20206;-63
2021/12/02 14:30:25;;;;;;;2.80;2.50;;;;;;;;;;4122259;34;20614;-62
2021/12/02 14:32:52;;;;;;;2.80;2.37;;;;;;;;;;4118484;34;20199;-64
2021/12/02 14:35:20;;;;;;;2.72;2.53;;;;;;;;;;4121502;34;20135;-62
2021/12/02 14:37:48;;;;;;;2.92;2.45;;;;;;;;;;4120586;34;20529;-62
2021/12/02 14:40:48;;;;;;;2.67;2.30;;;;;;;;;;4121919;34;20111;-64
2021/12/02 14:43:32;;;;;;;2.83;2.53;;;;;;;;;;4121866;34;20124;-63
2021/12/02 14:46:43;;;;;;;3.47;3.17;;;;;;;;;;4121714;34;20122;-62
2021/12/02 14:49:12;;;;;;;2.70;2.50;;;;;;;;;;4120416;34;20622;-65
2021/12/02 14:51:59;;;;;;;2.97;2.50;;;;;;;;;;4121497;34;20119;-61
2021/12/02 14:54:31;;;;;;;3.33;2.70;;;;;;;;;;4109337;34;20114;-62
2021/12/02 14:56:58;;;;;;;3.03;2.42;;;;;;;;;;4122531;34;20221;-62
2021/12/02 14:59:32;;;;;;;3.30;3.00;;;;;;;;;;4123740;34;20104;-62
2021/12/02 15:02:00;;;;;;;2.67;2.47;;;;;;;;;;4122646;34;20126;-63
2021/12/02 15:04:28;;;;;;;2.60;2.30;;;;;;;;;;4133452;34;20115;-63
2021/12/02 15:07:05;;;;;;;2.80;2.40;;;;;;;;;;4123690;34;20143;-60
2021/12/02 15:09:59;;;;;;;2.50;2.30;;;;;;;;;;4123502;34;20134;-63
2021/12/02 15:12:31;;;;;;;2.97;2.42;;;;;;;;;;4105555;34;20786;-62
2021/12/02 15:14:57;;;;;;;3.00;2.30;;;;;;;;;;4122191;34;20134;-63
2021/12/02 15:17:55;;;;;;;2.50;2.10;;;;;;;;;;4123547;34;20448;-62
2021/12/02 15:20:30;;;;;;;2.95;2.65;;;;;;;;;;4116984;34;20116;-64
2021/12/02 15:23:22;;;;;;;3.05;2.62;;;;;;;;;;4123826;34;20476;-63
2021/12/02 15:25:56;;;;;;;2.50;2.30;;;;;;;;;;4124070;34;20120;-65
2021/12/02 15:28:25;;;;;;;4.28;2.80;;;;;;;;;;4123548;34;20200;-64
2021/12/02 15:31:10;;;;;;;3.28;2.40;;;;;;;;;;4122296;34;20095;-65
2021/12/02 15:33:39;;;;;;;2.87;2.57;;;;;;;;;;4111278;34;20104;-63
2021/12/02 15:36:14;;;;;;;4.47;2.80;;;;;;;;;;4123904;34;20540;-63
2021/12/02 15:38:42;;;;;;;3.80;2.73;;;;;;;;;;4111627;34;20484;-64
2021/12/02 15:41:11;;;;;;;2.80;2.33;;;;;;;;;;4122457;34;20115;-64